Learmouth Airport
YPLM : now visible

Airfield :











YOU CAN JOIN US ON...

 
LOGIN :

Register | Disclaimer

   EN    FR    IT 

 









Legend :    VFR   Marginal VFR   IFR   Intensive IFR   Very Intensive IFR
Visi :
Ceiling :
>= 8 km
>= 3000ft
5 to 8 km
1000 to 3000 ft
1500m to 5 km
500 to 1000 ft
800 to 1500m
200 to 500 ft
< 800m
< 200 ft
Symbols :   Thunderstorms  Fog  Heavy snow  Heavy precipitations  Wind > 20 kt






- Airport Elevation : 19 ft
- IATA code : LEA


YPLM - Learmouth

CURRENT METAR :
  • 280000Z AUTO 22014KT 9999 // NCD 29/20 Q1009 RF00.0/000.0

EXPIRED METARs :
  • 272330Z AUTO 22011KT 9999 // NCD 29/19 Q1008 RF00.0/000.0
  • 272300Z AUTO 20006KT 9999 // NCD 27/19 Q1008
  • 272230Z AUTO 20007KT 9999 // NCD 25/19 Q1008 RF00.0/000.0
  • 272200Z AUTO 23007KT 9999 // NCD 25/17 Q1007
  • 272130Z AUTO 22007KT 9999 // NCD 25/19 Q1007 RF00.0/000.0

TAF TAF YPLM
Valid from the 28 at 00:00 until the 29 at 00:00 UTC


272318Z 2800/2900 22014KT CAVOK
FM280800 27016KT CAVOK
FM281200 22014KT CAVOK
FM281800 21010KT 9999 SCT012



MET'MAP, your aeronautical weather chart ! - Copyright ORBIFLY December 2007 - Disclaimer

ORBIFLY MET'MAP TEAM :

Programming & Development : Alexandra Zaïnal
Concept & original design : Baudouin d'Aumeries
Assistance for programming : Marc-Olivier Méhu
Technical & hardware support : Manuel Goepfert

Contact : metmap@orbifly.com




SOURCES & CREDITS :

   NOAA       Earth
Advisory